sensor_id;sensor_type;location;lat;lon;timestamp;temperature;humidity
13835;DHT22;6988;52.614;13.500;2022-09-06T00:01:32;15.20;99.90
13835;DHT22;6988;52.614;13.500;2022-09-06T00:06:24;15.20;99.90
13835;DHT22;6988;52.614;13.500;2022-09-06T00:11:16;15.20;99.90
13835;DHT22;6988;52.614;13.500;2022-09-06T00:16:11;15.20;99.90
13835;DHT22;6988;52.614;13.500;2022-09-06T00:21:13;15.20;99.90
13835;DHT22;6988;52.614;13.500;2022-09-06T00:26:06;15.10;99.90
13835;DHT22;6988;52.614;13.500;2022-09-06T00:30:58;15.10;99.90
13835;DHT22;6988;52.614;13.500;2022-09-06T00:35:58;15.10;99.90
13835;DHT22;6988;52.614;13.500;2022-09-06T00:40:52;15.10;99.90
13835;DHT22;6988;52.614;13.500;2022-09-06T00:45:43;15.00;99.90
13835;DHT22;6988;52.614;13.500;2022-09-06T00:50:38;14.90;99.90
13835;DHT22;6988;52.614;13.500;2022-09-06T00:55:30;14.80;99.90
13835;DHT22;6988;52.614;13.500;2022-09-06T01:00:23;14.70;99.90
13835;DHT22;6988;52.614;13.500;2022-09-06T01:05:15;14.70;99.90
13835;DHT22;6988;52.614;13.500;2022-09-06T01:10:24;14.60;99.90
13835;DHT22;6988;52.614;13.500;2022-09-06T01:15:32;14.60;99.90
13835;DHT22;6988;52.614;13.500;2022-09-06T01:20:40;14.60;99.90
13835;DHT22;6988;52.614;13.500;2022-09-06T01:25:46;14.70;99.90
13835;DHT22;6988;52.614;13.500;2022-09-06T01:30:56;14.70;99.90
13835;DHT22;6988;52.614;13.500;2022-09-06T01:36:02;14.70;99.90
13835;DHT22;6988;52.614;13.500;2022-09-06T01:40:57;14.80;99.90
13835;DHT22;6988;52.614;13.500;2022-09-06T01:45:58;15.00;99.90
13835;DHT22;6988;52.614;13.500;2022-09-06T01:51:01;14.90;99.90
13835;DHT22;6988;52.614;13.500;2022-09-06T01:56:05;14.90;99.90
13835;DHT22;6988;52.614;13.500;2022-09-06T02:01:06;14.90;99.90
13835;DHT22;6988;52.614;13.500;2022-09-06T02:06:10;15.00;99.90
13835;DHT22;6988;52.614;13.500;2022-09-06T02:11:08;14.80;99.90
13835;DHT22;6988;52.614;13.500;2022-09-06T02:16:02;14.70;99.90
13835;DHT22;6988;52.614;13.500;2022-09-06T02:20:57;14.60;99.90
13835;DHT22;6988;52.614;13.500;2022-09-06T02:25:56;14.50;99.90
13835;DHT22;6988;52.614;13.500;2022-09-06T02:30:52;14.40;99.90
13835;DHT22;6988;52.614;13.500;2022-09-06T02:35:51;14.40;99.90
13835;DHT22;6988;52.614;13.500;2022-09-06T02:40:45;14.30;99.90
13835;DHT22;6988;52.614;13.500;2022-09-06T02:45:38;14.20;99.90
13835;DHT22;6988;52.614;13.500;2022-09-06T02:50:30;14.30;99.90
13835;DHT22;6988;52.614;13.500;2022-09-06T02:55:23;14.20;99.90
13835;DHT22;6988;52.614;13.500;2022-09-06T03:00:14;14.10;99.90
13835;DHT22;6988;52.614;13.500;2022-09-06T03:05:07;14.10;99.90
13835;DHT22;6988;52.614;13.500;2022-09-06T03:09:59;14.10;99.90
13835;DHT22;6988;52.614;13.500;2022-09-06T03:14:52;14.10;99.90
13835;DHT22;6988;52.614;13.500;2022-09-06T03:19:44;14.00;99.90
13835;DHT22;6988;52.614;13.500;2022-09-06T03:24:35;14.00;99.90
13835;DHT22;6988;52.614;13.500;2022-09-06T03:29:27;14.00;99.90
13835;DHT22;6988;52.614;13.500;2022-09-06T03:34:20;14.00;99.90
13835;DHT22;6988;52.614;13.500;2022-09-06T03:39:12;14.00;99.90
13835;DHT22;6988;52.614;13.500;2022-09-06T03:44:04;14.00;99.90
13835;DHT22;6988;52.614;13.500;2022-09-06T03:48:56;14.00;99.90
13835;DHT22;6988;52.614;13.500;2022-09-06T03:53:49;14.00;99.90
13835;DHT22;6988;52.614;13.500;2022-09-06T03:58:41;14.00;99.90
13835;DHT22;6988;52.614;13.500;2022-09-06T04:03:33;14.10;99.90
13835;DHT22;6988;52.614;13.500;2022-09-06T04:08:25;14.00;99.90
13835;DHT22;6988;52.614;13.500;2022-09-06T04:13:19;14.00;99.90
13835;DHT22;6988;52.614;13.500;2022-09-06T04:18:11;14.00;99.90
13835;DHT22;6988;52.614;13.500;2022-09-06T04:23:02;14.10;99.90
13835;DHT22;6988;52.614;13.500;2022-09-06T04:27:54;14.10;99.90
13835;DHT22;6988;52.614;13.500;2022-09-06T04:32:47;14.20;99.90
13835;DHT22;6988;52.614;13.500;2022-09-06T04:37:39;14.20;99.90
13835;DHT22;6988;52.614;13.500;2022-09-06T04:42:31;14.20;99.90
13835;DHT22;6988;52.614;13.500;2022-09-06T04:47:23;14.30;99.90
13835;DHT22;6988;52.614;13.500;2022-09-06T04:52:17;14.30;99.90
13835;DHT22;6988;52.614;13.500;2022-09-06T04:57:09;14.30;99.90
13835;DHT22;6988;52.614;13.500;2022-09-06T05:02:00;14.30;99.90
13835;DHT22;6988;52.614;13.500;2022-09-06T05:06:59;14.30;99.90
13835;DHT22;6988;52.614;13.500;2022-09-06T05:11:53;14.30;99.90
13835;DHT22;6988;52.614;13.500;2022-09-06T05:16:45;14.30;99.90
13835;DHT22;6988;52.614;13.500;2022-09-06T05:21:37;14.30;99.90
13835;DHT22;6988;52.614;13.500;2022-09-06T05:26:28;14.40;99.90
13835;DHT22;6988;52.614;13.500;2022-09-06T05:31:26;14.40;99.90
13835;DHT22;6988;52.614;13.500;2022-09-06T05:36:19;14.60;99.90
13835;DHT22;6988;52.614;13.500;2022-09-06T05:41:12;14.50;99.90
13835;DHT22;6988;52.614;13.500;2022-09-06T05:46:04;14.60;99.90
13835;DHT22;6988;52.614;13.500;2022-09-06T05:51:01;14.70;99.90
13835;DHT22;6988;52.614;13.500;2022-09-06T05:55:54;14.80;99.90
13835;DHT22;6988;52.614;13.500;2022-09-06T06:00:45;14.90;99.90
13835;DHT22;6988;52.614;13.500;2022-09-06T06:05:37;15.10;99.90
13835;DHT22;6988;52.614;13.500;2022-09-06T06:10:30;15.30;99.90
13835;DHT22;6988;52.614;13.500;2022-09-06T06:15:22;15.40;99.90
13835;DHT22;6988;52.614;13.500;2022-09-06T06:20:14;15.60;99.90
13835;DHT22;6988;52.614;13.500;2022-09-06T06:25:06;15.80;99.90
13835;DHT22;6988;52.614;13.500;2022-09-06T06:29:59;15.90;99.90
13835;DHT22;6988;52.614;13.500;2022-09-06T06:34:51;16.00;99.90
13835;DHT22;6988;52.614;13.500;2022-09-06T06:39:43;16.20;99.90
13835;DHT22;6988;52.614;13.500;2022-09-06T06:44:35;16.40;99.90
13835;DHT22;6988;52.614;13.500;2022-09-06T06:49:29;16.60;99.90
13835;DHT22;6988;52.614;13.500;2022-09-06T06:54:20;16.80;99.90
13835;DHT22;6988;52.614;13.500;2022-09-06T06:59:12;17.00;99.90
13835;DHT22;6988;52.614;13.500;2022-09-06T07:04:04;17.20;99.90
13835;DHT22;6988;52.614;13.500;2022-09-06T07:08:57;17.50;99.90
13835;DHT22;6988;52.614;13.500;2022-09-06T07:13:49;17.70;99.90
13835;DHT22;6988;52.614;13.500;2022-09-06T07:18:42;17.90;99.90
13835;DHT22;6988;52.614;13.500;2022-09-06T07:23:35;18.10;99.90
13835;DHT22;6988;52.614;13.500;2022-09-06T07:28:28;18.00;99.90
13835;DHT22;6988;52.614;13.500;2022-09-06T07:33:20;18.00;99.90
13835;DHT22;6988;52.614;13.500;2022-09-06T07:38:12;17.80;99.90
13835;DHT22;6988;52.614;13.500;2022-09-06T07:43:04;17.80;99.90
13835;DHT22;6988;52.614;13.500;2022-09-06T07:47:57;18.00;99.90
13835;DHT22;6988;52.614;13.500;2022-09-06T07:52:49;18.00;99.90
13835;DHT22;6988;52.614;13.500;2022-09-06T07:57:41;18.40;99.90
13835;DHT22;6988;52.614;13.500;2022-09-06T08:02:33;18.80;99.90
13835;DHT22;6988;52.614;13.500;2022-09-06T08:07:26;19.60;99.90
13835;DHT22;6988;52.614;13.500;2022-09-06T08:12:17;20.10;99.90
13835;DHT22;6988;52.614;13.500;2022-09-06T08:17:09;20.20;99.90
13835;DHT22;6988;52.614;13.500;2022-09-06T08:22:01;20.50;99.90
13835;DHT22;6988;52.614;13.500;2022-09-06T08:26:54;20.90;99.90
13835;DHT22;6988;52.614;13.500;2022-09-06T08:31:46;21.00;99.90
13835;DHT22;6988;52.614;13.500;2022-09-06T08:36:39;20.90;99.90
13835;DHT22;6988;52.614;13.500;2022-09-06T08:41:36;20.70;99.90
13835;DHT22;6988;52.614;13.500;2022-09-06T08:46:39;20.40;99.90
13835;DHT22;6988;52.614;13.500;2022-09-06T08:51:57;20.30;99.90
13835;DHT22;6988;52.614;13.500;2022-09-06T08:57:04;20.30;99.90
13835;DHT22;6988;52.614;13.500;2022-09-06T09:02:10;20.50;99.90
13835;DHT22;6988;52.614;13.500;2022-09-06T09:07:15;20.50;99.90
13835;DHT22;6988;52.614;13.500;2022-09-06T09:12:22;20.50;99.90
13835;DHT22;6988;52.614;13.500;2022-09-06T09:17:18;20.70;99.90
13835;DHT22;6988;52.614;13.500;2022-09-06T09:22:17;21.10;99.90
13835;DHT22;6988;52.614;13.500;2022-09-06T09:27:10;21.00;99.90
13835;DHT22;6988;52.614;13.500;2022-09-06T09:32:04;20.90;99.90
13835;DHT22;6988;52.614;13.500;2022-09-06T09:37:17;20.70;99.90
13835;DHT22;6988;52.614;13.500;2022-09-06T09:42:22;20.70;99.90
13835;DHT22;6988;52.614;13.500;2022-09-06T09:47:24;20.70;99.90
13835;DHT22;6988;52.614;13.500;2022-09-06T09:52:25;20.80;99.90
13835;DHT22;6988;52.614;13.500;2022-09-06T09:57:18;20.80;99.90
13835;DHT22;6988;52.614;13.500;2022-09-06T10:02:18;20.70;99.90
13835;DHT22;6988;52.614;13.500;2022-09-06T10:07:17;20.90;99.90
13835;DHT22;6988;52.614;13.500;2022-09-06T10:12:15;21.10;99.90
13835;DHT22;6988;52.614;13.500;2022-09-06T10:17:17;21.30;99.90
13835;DHT22;6988;52.614;13.500;2022-09-06T10:22:25;21.20;99.90
13835;DHT22;6988;52.614;13.500;2022-09-06T10:27:23;21.20;99.90
13835;DHT22;6988;52.614;13.500;2022-09-06T10:32:30;21.30;99.90
13835;DHT22;6988;52.614;13.500;2022-09-06T10:37:46;21.30;99.90
13835;DHT22;6988;52.614;13.500;2022-09-06T10:42:45;21.30;99.90
13835;DHT22;6988;52.614;13.500;2022-09-06T10:47:59;21.50;99.90
13835;DHT22;6988;52.614;13.500;2022-09-06T10:52:55;21.60;99.90
13835;DHT22;6988;52.614;13.500;2022-09-06T10:57:58;21.60;99.90
13835;DHT22;6988;52.614;13.500;2022-09-06T11:02:59;21.50;99.90
13835;DHT22;6988;52.614;13.500;2022-09-06T11:07:59;21.50;99.90
13835;DHT22;6988;52.614;13.500;2022-09-06T11:12:58;21.40;99.90
13835;DHT22;6988;52.614;13.500;2022-09-06T11:17:56;21.30;99.90
13835;DHT22;6988;52.614;13.500;2022-09-06T11:23:06;21.30;99.90
13835;DHT22;6988;52.614;13.500;2022-09-06T11:28:25;21.30;99.90
13835;DHT22;6988;52.614;13.500;2022-09-06T11:33:23;21.50;99.90
13835;DHT22;6988;52.614;13.500;2022-09-06T11:38:21;21.60;99.90
13835;DHT22;6988;52.614;13.500;2022-09-06T11:43:17;21.80;99.90
13835;DHT22;6988;52.614;13.500;2022-09-06T11:48:59;21.80;99.90
13835;DHT22;6988;52.614;13.500;2022-09-06T11:54:05;21.90;99.90
13835;DHT22;6988;52.614;13.500;2022-09-06T11:59:34;21.90;99.90
13835;DHT22;6988;52.614;13.500;2022-09-06T12:10:43;22.00;99.90
13835;DHT22;6988;52.614;13.500;2022-09-06T12:15:44;22.00;99.90
13835;DHT22;6988;52.614;13.500;2022-09-06T12:20:59;22.00;99.90
13835;DHT22;6988;52.614;13.500;2022-09-06T12:25:55;22.10;99.90
13835;DHT22;6988;52.614;13.500;2022-09-06T12:30:47;22.10;99.90
13835;DHT22;6988;52.614;13.500;2022-09-06T12:35:41;22.10;99.90
13835;DHT22;6988;52.614;13.500;2022-09-06T12:40:37;22.10;99.90
13835;DHT22;6988;52.614;13.500;2022-09-06T12:45:32;22.20;99.90
13835;DHT22;6988;52.614;13.500;2022-09-06T12:50:24;22.20;99.90
13835;DHT22;6988;52.614;13.500;2022-09-06T12:55:23;22.20;99.90
13835;DHT22;6988;52.614;13.500;2022-09-06T13:00:19;22.30;99.90
13835;DHT22;6988;52.614;13.500;2022-09-06T13:05:13;22.40;99.90
13835;DHT22;6988;52.614;13.500;2022-09-06T13:10:05;22.50;99.90
13835;DHT22;6988;52.614;13.500;2022-09-06T13:15:02;22.60;99.90
13835;DHT22;6988;52.614;13.500;2022-09-06T13:20:09;22.70;99.90
13835;DHT22;6988;52.614;13.500;2022-09-06T13:25:05;22.70;99.90
13835;DHT22;6988;52.614;13.500;2022-09-06T13:30:06;22.70;99.90
13835;DHT22;6988;52.614;13.500;2022-09-06T13:34:59;22.70;99.90
13835;DHT22;6988;52.614;13.500;2022-09-06T13:39:52;22.90;99.90
13835;DHT22;6988;52.614;13.500;2022-09-06T13:44:47;22.80;99.90
13835;DHT22;6988;52.614;13.500;2022-09-06T13:49:40;22.90;99.90
13835;DHT22;6988;52.614;13.500;2022-09-06T13:54:32;22.80;99.90
13835;DHT22;6988;52.614;13.500;2022-09-06T13:59:24;23.00;99.90
13835;DHT22;6988;52.614;13.500;2022-09-06T14:04:19;22.90;99.90
13835;DHT22;6988;52.614;13.500;2022-09-06T14:09:11;22.90;99.90
13835;DHT22;6988;52.614;13.500;2022-09-06T14:14:03;22.90;99.90
13835;DHT22;6988;52.614;13.500;2022-09-06T14:18:56;23.00;99.90
13835;DHT22;6988;52.614;13.500;2022-09-06T14:23:50;22.90;99.90
13835;DHT22;6988;52.614;13.500;2022-09-06T14:28:42;23.00;99.90
13835;DHT22;6988;52.614;13.500;2022-09-06T14:33:34;22.90;99.90
13835;DHT22;6988;52.614;13.500;2022-09-06T14:38:26;22.70;99.90
13835;DHT22;6988;52.614;13.500;2022-09-06T14:43:19;22.60;99.90
13835;DHT22;6988;52.614;13.500;2022-09-06T14:48:11;22.60;99.90
13835;DHT22;6988;52.614;13.500;2022-09-06T14:53:03;22.60;99.90
13835;DHT22;6988;52.614;13.500;2022-09-06T14:57:56;22.70;99.90
13835;DHT22;6988;52.614;13.500;2022-09-06T15:02:51;22.90;99.90
13835;DHT22;6988;52.614;13.500;2022-09-06T15:07:43;23.20;99.90
13835;DHT22;6988;52.614;13.500;2022-09-06T15:12:36;23.30;99.90
13835;DHT22;6988;52.614;13.500;2022-09-06T15:17:27;23.10;99.90
13835;DHT22;6988;52.614;13.500;2022-09-06T15:22:20;23.30;99.90
13835;DHT22;6988;52.614;13.500;2022-09-06T15:27:12;23.20;99.90
13835;DHT22;6988;52.614;13.500;2022-09-06T15:32:04;23.10;99.90
13835;DHT22;6988;52.614;13.500;2022-09-06T15:36:56;23.10;99.90
13835;DHT22;6988;52.614;13.500;2022-09-06T15:41:50;23.00;99.90
13835;DHT22;6988;52.614;13.500;2022-09-06T15:46:45;22.90;99.90
13835;DHT22;6988;52.614;13.500;2022-09-06T15:51:38;22.80;99.90
13835;DHT22;6988;52.614;13.500;2022-09-06T15:56:31;22.60;99.90
13835;DHT22;6988;52.614;13.500;2022-09-06T16:01:25;22.40;99.90
13835;DHT22;6988;52.614;13.500;2022-09-06T16:06:19;22.30;99.90
13835;DHT22;6988;52.614;13.500;2022-09-06T16:11:14;22.10;99.90
13835;DHT22;6988;52.614;13.500;2022-09-06T16:16:09;22.00;99.90
13835;DHT22;6988;52.614;13.500;2022-09-06T16:21:04;21.90;99.90
13835;DHT22;6988;52.614;13.500;2022-09-06T16:25:57;21.80;99.90
13835;DHT22;6988;52.614;13.500;2022-09-06T16:30:49;21.70;99.90
13835;DHT22;6988;52.614;13.500;2022-09-06T16:35:41;21.60;99.90
13835;DHT22;6988;52.614;13.500;2022-09-06T16:40:35;21.50;99.90
13835;DHT22;6988;52.614;13.500;2022-09-06T16:45:27;21.40;99.90
13835;DHT22;6988;52.614;13.500;2022-09-06T16:50:19;21.40;99.90
13835;DHT22;6988;52.614;13.500;2022-09-06T16:55:11;21.30;99.90
13835;DHT22;6988;52.614;13.500;2022-09-06T17:00:05;21.20;99.90
13835;DHT22;6988;52.614;13.500;2022-09-06T17:04:58;21.10;99.90
13835;DHT22;6988;52.614;13.500;2022-09-06T17:09:49;21.00;99.90
13835;DHT22;6988;52.614;13.500;2022-09-06T17:14:41;20.90;99.90
13835;DHT22;6988;52.614;13.500;2022-09-06T17:19:35;20.70;99.90
13835;DHT22;6988;52.614;13.500;2022-09-06T17:24:30;20.60;99.90
13835;DHT22;6988;52.614;13.500;2022-09-06T17:29:21;20.50;99.90
13835;DHT22;6988;52.614;13.500;2022-09-06T17:34:13;20.30;99.90
13835;DHT22;6988;52.614;13.500;2022-09-06T17:39:11;20.20;99.90
13835;DHT22;6988;52.614;13.500;2022-09-06T17:44:04;20.10;99.90
13835;DHT22;6988;52.614;13.500;2022-09-06T17:48:57;20.00;99.90
13835;DHT22;6988;52.614;13.500;2022-09-06T17:53:49;19.90;99.90
13835;DHT22;6988;52.614;13.500;2022-09-06T17:58:43;19.80;99.90
13835;DHT22;6988;52.614;13.500;2022-09-06T18:03:42;19.80;99.90
13835;DHT22;6988;52.614;13.500;2022-09-06T18:08:36;19.60;99.90
13835;DHT22;6988;52.614;13.500;2022-09-06T18:13:29;19.60;99.90
13835;DHT22;6988;52.614;13.500;2022-09-06T18:18:22;19.60;99.90
13835;DHT22;6988;52.614;13.500;2022-09-06T18:23:14;19.50;99.90
13835;DHT22;6988;52.614;13.500;2022-09-06T18:28:05;19.50;99.90
13835;DHT22;6988;52.614;13.500;2022-09-06T18:32:57;19.50;99.90
13835;DHT22;6988;52.614;13.500;2022-09-06T18:37:50;19.50;99.90
13835;DHT22;6988;52.614;13.500;2022-09-06T18:42:42;19.60;99.90
13835;DHT22;6988;52.614;13.500;2022-09-06T18:47:34;19.60;99.90
13835;DHT22;6988;52.614;13.500;2022-09-06T18:52:26;19.60;99.90
13835;DHT22;6988;52.614;13.500;2022-09-06T18:57:19;19.60;99.90
13835;DHT22;6988;52.614;13.500;2022-09-06T19:02:10;19.50;99.90
13835;DHT22;6988;52.614;13.500;2022-09-06T19:07:02;19.50;99.90
13835;DHT22;6988;52.614;13.500;2022-09-06T19:11:54;19.40;99.90
13835;DHT22;6988;52.614;13.500;2022-09-06T19:16:47;19.30;99.90
13835;DHT22;6988;52.614;13.500;2022-09-06T19:21:40;19.20;99.90
13835;DHT22;6988;52.614;13.500;2022-09-06T19:26:33;19.20;99.90
13835;DHT22;6988;52.614;13.500;2022-09-06T19:31:28;19.20;99.90
13835;DHT22;6988;52.614;13.500;2022-09-06T19:36:23;19.20;99.90
13835;DHT22;6988;52.614;13.500;2022-09-06T19:41:16;19.20;99.90
13835;DHT22;6988;52.614;13.500;2022-09-06T19:46:10;19.10;99.90
13835;DHT22;6988;52.614;13.500;2022-09-06T19:51:03;18.90;99.90
13835;DHT22;6988;52.614;13.500;2022-09-06T19:55:58;19.00;99.90
13835;DHT22;6988;52.614;13.500;2022-09-06T20:00:50;18.90;99.90
13835;DHT22;6988;52.614;13.500;2022-09-06T20:05:42;18.90;99.90
13835;DHT22;6988;52.614;13.500;2022-09-06T20:10:34;18.80;99.90
13835;DHT22;6988;52.614;13.500;2022-09-06T20:15:27;18.80;99.90
13835;DHT22;6988;52.614;13.500;2022-09-06T20:20:18;18.70;99.90
13835;DHT22;6988;52.614;13.500;2022-09-06T20:25:10;18.60;99.90
13835;DHT22;6988;52.614;13.500;2022-09-06T20:30:02;18.60;99.90
13835;DHT22;6988;52.614;13.500;2022-09-06T20:34:56;18.60;99.90
13835;DHT22;6988;52.614;13.500;2022-09-06T20:39:48;18.50;99.90
13835;DHT22;6988;52.614;13.500;2022-09-06T20:44:40;18.60;99.90
13835;DHT22;6988;52.614;13.500;2022-09-06T20:49:32;18.40;99.90
13835;DHT22;6988;52.614;13.500;2022-09-06T20:54:25;18.40;99.90
13835;DHT22;6988;52.614;13.500;2022-09-06T20:59:17;18.30;99.90
13835;DHT22;6988;52.614;13.500;2022-09-06T21:04:11;18.40;99.90
13835;DHT22;6988;52.614;13.500;2022-09-06T21:09:06;18.40;99.90
13835;DHT22;6988;52.614;13.500;2022-09-06T21:14:00;18.40;99.90
13835;DHT22;6988;52.614;13.500;2022-09-06T21:18:53;18.30;99.90
13835;DHT22;6988;52.614;13.500;2022-09-06T21:23:46;18.30;99.90
13835;DHT22;6988;52.614;13.500;2022-09-06T21:28:39;18.30;99.90
13835;DHT22;6988;52.614;13.500;2022-09-06T21:33:34;18.30;99.90
13835;DHT22;6988;52.614;13.500;2022-09-06T21:38:27;18.30;99.90
13835;DHT22;6988;52.614;13.500;2022-09-06T21:43:20;18.20;99.90
13835;DHT22;6988;52.614;13.500;2022-09-06T22:04:17;17.90;99.90
13835;DHT22;6988;52.614;13.500;2022-09-06T22:09:11;17.90;99.90
13835;DHT22;6988;52.614;13.500;2022-09-06T22:14:05;18.00;99.90
13835;DHT22;6988;52.614;13.500;2022-09-06T22:18:57;18.10;99.90
13835;DHT22;6988;52.614;13.500;2022-09-06T22:23:53;18.20;99.90
13835;DHT22;6988;52.614;13.500;2022-09-06T22:28:48;18.20;99.90
13835;DHT22;6988;52.614;13.500;2022-09-06T22:33:43;18.20;99.90
13835;DHT22;6988;52.614;13.500;2022-09-06T22:38:35;18.10;99.90
13835;DHT22;6988;52.614;13.500;2022-09-06T22:43:28;18.10;99.90
13835;DHT22;6988;52.614;13.500;2022-09-06T22:48:20;18.00;99.90
13835;DHT22;6988;52.614;13.500;2022-09-06T22:53:12;18.00;99.90
13835;DHT22;6988;52.614;13.500;2022-09-06T22:58:04;18.00;99.90
13835;DHT22;6988;52.614;13.500;2022-09-06T23:02:57;17.90;99.90
13835;DHT22;6988;52.614;13.500;2022-09-06T23:07:49;17.90;99.90
13835;DHT22;6988;52.614;13.500;2022-09-06T23:12:41;17.80;99.90
13835;DHT22;6988;52.614;13.500;2022-09-06T23:17:33;17.70;99.90
13835;DHT22;6988;52.614;13.500;2022-09-06T23:22:26;17.60;99.90
13835;DHT22;6988;52.614;13.500;2022-09-06T23:27:18;17.40;99.90
13835;DHT22;6988;52.614;13.500;2022-09-06T23:32:09;17.30;99.90
13835;DHT22;6988;52.614;13.500;2022-09-06T23:37:01;17.20;99.90
13835;DHT22;6988;52.614;13.500;2022-09-06T23:41:55;17.00;99.90
13835;DHT22;6988;52.614;13.500;2022-09-06T23:46:47;17.00;99.90
13835;DHT22;6988;52.614;13.500;2022-09-06T23:51:39;16.90;99.90
13835;DHT22;6988;52.614;13.500;2022-09-06T23:56:30;16.80;99.90
